Etusivu
METAR-TAF:

METAR-TAF

Lentoasemat :

Cuenca, Ecuador

Leveyspiiri: 02-53-22S, Pituuspiiri: 078-59-04W, korkeus merenpinnasta: 2532 m

Tämänhetkinen sää

Tämä raportti tehtiin 25 minuuttia sitten, kello 17.00 UTC
Tuuli 9 kn koillisesta
Lämpötila 21°C
Kosteus 49%
Ilmanpaine 1027 hPa
Näkyvyys 10 km tai enemmän
Hajanaisia pilviä 4000 ft:n korkeudessa
Hajanaisia pilviä 7000 ft:n korkeudessa
sadekuuroja näköpiirissä,

METAR: SECU 211700Z 05009KT 9999 VCSH SCT040 SCT070 21/10 Q1027

Aika: 12:25 (17:25 UTC)


TAF: puuttuu

Säähavainnot ja -ennusteet yli 4000 lentoasemalta (METAR- ja TAF-raportit).

Käytössä olevat sääasemat on merkitty karttaan keltaisilla ja punaisilla pisteillä.

Aseta hiiri pisteen päälle nähdäksesi sääaseman nimen.

Klikkaa sitten nähdäksesi säähavainnot ja -ennusteet.

Kartan vaihtaminen: klikkaa mustalla rastilla varustettuja vihreitä pisteitä, niin voit zoomata sisään; viivalla varustettua vihreää pistettä, niin voit zoomata ulos tai vihreitä nuolia, niin pääset viereisille kartoille.


METAR-TAF: